sensor_id;sensor_type;location;lat;lon;timestamp;pressure;altitude;pressure_sealevel;temperature;humidity
17785;BME280;9016;53.582;10.062;2023-02-11T00:01:08;102757.00;;;7.79;80.48
17785;BME280;9016;53.582;10.062;2023-02-11T00:03:36;102761.47;;;7.76;80.92
17785;BME280;9016;53.582;10.062;2023-02-11T00:06:06;102753.44;;;7.79;81.24
17785;BME280;9016;53.582;10.062;2023-02-11T00:08:36;102755.13;;;7.84;81.06
17785;BME280;9016;53.582;10.062;2023-02-11T00:11:04;102757.81;;;7.83;80.79
17785;BME280;9016;53.582;10.062;2023-02-11T00:13:33;102761.31;;;7.85;81.03
17785;BME280;9016;53.582;10.062;2023-02-11T00:16:05;102744.59;;;7.80;82.04
17785;BME280;9016;53.582;10.062;2023-02-11T00:18:35;102743.63;;;7.85;81.93
17785;BME280;9016;53.582;10.062;2023-02-11T00:21:06;102747.84;;;7.95;82.24
17785;BME280;9016;53.582;10.062;2023-02-11T00:23:35;102748.78;;;7.94;81.75
17785;BME280;9016;53.582;10.062;2023-02-11T00:26:03;102753.94;;;8.02;82.62
17785;BME280;9016;53.582;10.062;2023-02-11T00:28:31;102752.19;;;8.01;82.98
17785;BME280;9016;53.582;10.062;2023-02-11T00:30:59;102754.69;;;8.09;81.86
17785;BME280;9016;53.582;10.062;2023-02-11T00:33:28;102751.22;;;8.05;82.48
17785;BME280;9016;53.582;10.062;2023-02-11T00:35:57;102762.06;;;7.93;83.87
17785;BME280;9016;53.582;10.062;2023-02-11T00:38:25;102762.91;;;7.96;83.89
17785;BME280;9016;53.582;10.062;2023-02-11T00:40:53;102752.28;;;7.96;84.04
17785;BME280;9016;53.582;10.062;2023-02-11T00:43:21;102763.75;;;7.98;84.41
17785;BME280;9016;53.582;10.062;2023-02-11T00:45:49;102754.81;;;8.02;84.81
17785;BME280;9016;53.582;10.062;2023-02-11T00:48:18;102748.63;;;8.00;86.06
17785;BME280;9016;53.582;10.062;2023-02-11T00:50:46;102740.69;;;8.00;85.89
17785;BME280;9016;53.582;10.062;2023-02-11T00:53:16;102744.34;;;7.93;85.99
17785;BME280;9016;53.582;10.062;2023-02-11T00:55:44;102739.19;;;7.84;87.52
17785;BME280;9016;53.582;10.062;2023-02-11T00:58:12;102726.72;;;7.89;87.81
17785;BME280;9016;53.582;10.062;2023-02-11T01:00:40;102727.63;;;7.88;88.54
17785;BME280;9016;53.582;10.062;2023-02-11T01:03:08;102712.59;;;7.89;87.93
17785;BME280;9016;53.582;10.062;2023-02-11T01:05:36;102718.94;;;7.79;89.68
17785;BME280;9016;53.582;10.062;2023-02-11T01:08:04;102716.25;;;7.80;89.12
17785;BME280;9016;53.582;10.062;2023-02-11T01:10:36;102706.53;;;7.81;90.02
17785;BME280;9016;53.582;10.062;2023-02-11T01:13:05;102718.91;;;7.80;89.58
17785;BME280;9016;53.582;10.062;2023-02-11T01:15:33;102707.28;;;7.89;90.02
17785;BME280;9016;53.582;10.062;2023-02-11T01:18:03;102715.25;;;7.89;90.58
17785;BME280;9016;53.582;10.062;2023-02-11T01:20:31;102712.56;;;7.90;90.29
17785;BME280;9016;53.582;10.062;2023-02-11T01:23:00;102705.50;;;7.88;91.24
17785;BME280;9016;53.582;10.062;2023-02-11T01:25:28;102704.56;;;7.92;91.06
17785;BME280;9016;53.582;10.062;2023-02-11T01:27:58;102692.91;;;7.99;90.19
17785;BME280;9016;53.582;10.062;2023-02-11T01:30:26;102701.84;;;7.95;90.48
17785;BME280;9016;53.582;10.062;2023-02-11T01:32:54;102693.06;;;7.91;90.66
17785;BME280;9016;53.582;10.062;2023-02-11T01:35:22;102693.94;;;7.92;91.38
17785;BME280;9016;53.582;10.062;2023-02-11T01:37:50;102700.03;;;7.98;90.41
17785;BME280;9016;53.582;10.062;2023-02-11T01:40:18;102696.41;;;8.02;90.57
17785;BME280;9016;53.582;10.062;2023-02-11T01:42:46;102694.72;;;7.98;90.69
17785;BME280;9016;53.582;10.062;2023-02-11T01:48:28;102684.25;;;7.91;92.44
17785;BME280;9016;53.582;10.062;2023-02-11T01:51:01;102679.72;;;7.96;92.55
17785;BME280;9016;53.582;10.062;2023-02-11T01:53:31;102675.25;;;7.98;91.50
17785;BME280;9016;53.582;10.062;2023-02-11T01:56:19;102672.72;;;7.92;92.38
17785;BME280;9016;53.582;10.062;2023-02-11T01:59:09;102663.97;;;7.87;93.28
17785;BME280;9016;53.582;10.062;2023-02-11T02:01:39;102660.34;;;7.91;93.60
17785;BME280;9016;53.582;10.062;2023-02-11T02:04:16;102654.97;;;7.94;93.96
17785;BME280;9016;53.582;10.062;2023-02-11T02:06:49;102662.13;;;7.90;94.30
17785;BME280;9016;53.582;10.062;2023-02-11T02:09:22;102669.09;;;7.96;95.24
17785;BME280;9016;53.582;10.062;2023-02-11T02:11:51;102665.34;;;8.06;94.51
17785;BME280;9016;53.582;10.062;2023-02-11T02:14:19;102664.56;;;8.01;94.08
17785;BME280;9016;53.582;10.062;2023-02-11T02:16:47;102657.59;;;7.95;94.88
17785;BME280;9016;53.582;10.062;2023-02-11T02:19:39;102649.59;;;7.97;94.70
17785;BME280;9016;53.582;10.062;2023-02-11T02:25:41;102649.34;;;8.11;94.53
17785;BME280;9016;53.582;10.062;2023-02-11T02:28:34;102644.91;;;8.11;93.81
17785;BME280;9016;53.582;10.062;2023-02-11T02:31:27;102643.03;;;8.16;93.52
17785;BME280;9016;53.582;10.062;2023-02-11T02:34:08;102641.38;;;8.11;93.20
17785;BME280;9016;53.582;10.062;2023-02-11T02:36:44;102627.19;;;8.12;93.31
17785;BME280;9016;53.582;10.062;2023-02-11T02:39:19;102632.38;;;8.18;93.70
17785;BME280;9016;53.582;10.062;2023-02-11T02:41:49;102629.72;;;8.18;93.06
17785;BME280;9016;53.582;10.062;2023-02-11T02:44:20;102630.69;;;8.14;92.45
17785;BME280;9016;53.582;10.062;2023-02-11T02:46:48;102622.56;;;8.21;92.76
17785;BME280;9016;53.582;10.062;2023-02-11T02:49:18;102627.84;;;8.26;92.62
17785;BME280;9016;53.582;10.062;2023-02-11T02:52:06;102635.78;;;8.26;92.57
17785;BME280;9016;53.582;10.062;2023-02-11T02:54:52;102632.34;;;8.19;92.35
17785;BME280;9016;53.582;10.062;2023-02-11T02:57:30;102631.41;;;8.22;93.27
17785;BME280;9016;53.582;10.062;2023-02-11T03:00:10;102632.03;;;8.36;93.52
17785;BME280;9016;53.582;10.062;2023-02-11T03:02:51;102634.84;;;8.30;92.79
17785;BME280;9016;53.582;10.062;2023-02-11T03:05:26;102630.56;;;8.20;94.40
17785;BME280;9016;53.582;10.062;2023-02-11T03:08:00;102643.06;;;8.15;94.06
17785;BME280;9016;53.582;10.062;2023-02-11T03:10:34;102631.50;;;8.19;95.36
17785;BME280;9016;53.582;10.062;2023-02-11T03:13:04;102635.06;;;8.16;95.04
17785;BME280;9016;53.582;10.062;2023-02-11T03:15:37;102634.09;;;8.20;95.59
17785;BME280;9016;53.582;10.062;2023-02-11T03:18:08;102630.50;;;8.23;95.24
17785;BME280;9016;53.582;10.062;2023-02-11T03:20:41;102632.34;;;8.21;95.74
17785;BME280;9016;53.582;10.062;2023-02-11T03:23:12;102628.69;;;8.28;95.50
17785;BME280;9016;53.582;10.062;2023-02-11T03:25:45;102621.63;;;8.24;96.02
17785;BME280;9016;53.582;10.062;2023-02-11T03:28:22;102621.47;;;8.33;95.39
17785;BME280;9016;53.582;10.062;2023-02-11T03:30:57;102616.09;;;8.37;95.59
17785;BME280;9016;53.582;10.062;2023-02-11T03:33:35;102609.97;;;8.32;96.23
17785;BME280;9016;53.582;10.062;2023-02-11T03:36:09;102605.38;;;8.40;95.33
17785;BME280;9016;53.582;10.062;2023-02-11T03:38:46;102604.50;;;8.40;95.25
17785;BME280;9016;53.582;10.062;2023-02-11T03:41:17;102600.19;;;8.34;95.36
17785;BME280;9016;53.582;10.062;2023-02-11T03:43:52;102599.16;;;8.41;95.77
17785;BME280;9016;53.582;10.062;2023-02-11T03:46:23;102601.84;;;8.40;95.76
17785;BME280;9016;53.582;10.062;2023-02-11T03:48:55;102598.22;;;8.44;94.82
17785;BME280;9016;53.582;10.062;2023-02-11T03:51:28;102597.22;;;8.49;94.96
17785;BME280;9016;53.582;10.062;2023-02-11T03:53:58;102587.56;;;8.45;95.42
17785;BME280;9016;53.582;10.062;2023-02-11T03:56:33;102590.22;;;8.45;95.11
17785;BME280;9016;53.582;10.062;2023-02-11T03:59:02;102575.31;;;8.38;94.97
17785;BME280;9016;53.582;10.062;2023-02-11T04:01:30;102575.94;;;8.49;95.43
17785;BME280;9016;53.582;10.062;2023-02-11T04:03:58;102572.44;;;8.47;94.56
17785;BME280;9016;53.582;10.062;2023-02-11T04:06:27;102581.13;;;8.55;94.50
17785;BME280;9016;53.582;10.062;2023-02-11T04:08:55;102584.84;;;8.47;94.32
17785;BME280;9016;53.582;10.062;2023-02-11T04:11:23;102594.44;;;8.55;93.31
17785;BME280;9016;53.582;10.062;2023-02-11T04:13:51;102599.69;;;8.57;92.85
17785;BME280;9016;53.582;10.062;2023-02-11T04:16:19;102596.28;;;8.50;93.45
17785;BME280;9016;53.582;10.062;2023-02-11T04:18:47;102590.78;;;8.59;93.51
17785;BME280;9016;53.582;10.062;2023-02-11T04:21:15;102601.31;;;8.64;92.50
17785;BME280;9016;53.582;10.062;2023-02-11T04:23:44;102601.34;;;8.62;92.95
17785;BME280;9016;53.582;10.062;2023-02-11T04:26:12;102604.00;;;8.62;93.42
17785;BME280;9016;53.582;10.062;2023-02-11T04:28:40;102611.75;;;8.71;92.64
17785;BME280;9016;53.582;10.062;2023-02-11T04:31:08;102609.72;;;8.82;92.86
17785;BME280;9016;53.582;10.062;2023-02-11T04:33:37;102598.09;;;8.88;91.42
17785;BME280;9016;53.582;10.062;2023-02-11T04:36:06;102602.56;;;8.86;91.01
17785;BME280;9016;53.582;10.062;2023-02-11T04:38:34;102603.56;;;8.80;91.43
17785;BME280;9016;53.582;10.062;2023-02-11T04:41:03;102603.53;;;8.83;91.70
17785;BME280;9016;53.582;10.062;2023-02-11T04:43:31;102607.81;;;8.89;90.81
17785;BME280;9016;53.582;10.062;2023-02-11T04:45:59;102593.81;;;8.81;91.03
17785;BME280;9016;53.582;10.062;2023-02-11T04:48:27;102606.84;;;8.91;91.23
17785;BME280;9016;53.582;10.062;2023-02-11T04:50:55;102598.66;;;9.00;90.68
17785;BME280;9016;53.582;10.062;2023-02-11T04:53:24;102602.91;;;9.08;90.73
17785;BME280;9016;53.582;10.062;2023-02-11T04:55:52;102598.84;;;8.93;91.26
17785;BME280;9016;53.582;10.062;2023-02-11T04:58:21;102603.19;;;8.97;90.98
17785;BME280;9016;53.582;10.062;2023-02-11T05:00:49;102612.91;;;8.98;90.75
17785;BME280;9016;53.582;10.062;2023-02-11T05:03:17;102603.97;;;9.00;91.57
17785;BME280;9016;53.582;10.062;2023-02-11T05:05:45;102618.06;;;9.06;91.00
17785;BME280;9016;53.582;10.062;2023-02-11T05:08:14;102612.75;;;9.06;91.37
17785;BME280;9016;53.582;10.062;2023-02-11T05:10:44;102627.69;;;9.10;91.30
17785;BME280;9016;53.582;10.062;2023-02-11T05:13:12;102624.28;;;9.05;91.13
17785;BME280;9016;53.582;10.062;2023-02-11T05:15:42;102618.88;;;9.08;92.06
17785;BME280;9016;53.582;10.062;2023-02-11T05:18:09;102611.91;;;9.04;91.68
17785;BME280;9016;53.582;10.062;2023-02-11T05:20:37;102625.16;;;9.05;92.47
17785;BME280;9016;53.582;10.062;2023-02-11T05:23:05;102618.06;;;9.04;92.91
17785;BME280;9016;53.582;10.062;2023-02-11T05:25:33;102603.91;;;9.04;93.10
17785;BME280;9016;53.582;10.062;2023-02-11T05:28:02;102606.59;;;9.02;93.46
17785;BME280;9016;53.582;10.062;2023-02-11T05:30:31;102600.25;;;9.09;93.45
17785;BME280;9016;53.582;10.062;2023-02-11T05:33:00;102592.34;;;9.05;94.87
17785;BME280;9016;53.582;10.062;2023-02-11T05:35:29;102594.19;;;9.02;94.09
17785;BME280;9016;53.582;10.062;2023-02-11T05:37:57;102600.28;;;9.06;94.10
17785;BME280;9016;53.582;10.062;2023-02-11T05:40:24;102584.28;;;9.09;94.90
17785;BME280;9016;53.582;10.062;2023-02-11T05:42:52;102581.63;;;9.09;94.41
17785;BME280;9016;53.582;10.062;2023-02-11T05:45:20;102578.16;;;9.06;94.97
17785;BME280;9016;53.582;10.062;2023-02-11T05:47:48;102572.63;;;9.15;95.37
17785;BME280;9016;53.582;10.062;2023-02-11T05:50:18;102564.50;;;9.19;94.75
17785;BME280;9016;53.582;10.062;2023-02-11T05:52:46;102562.97;;;9.11;93.38
17785;BME280;9016;53.582;10.062;2023-02-11T05:55:14;102565.75;;;9.05;94.77
17785;BME280;9016;53.582;10.062;2023-02-11T05:57:42;102571.16;;;9.02;95.08
17785;BME280;9016;53.582;10.062;2023-02-11T06:00:11;102572.06;;;9.00;95.73
17785;BME280;9016;53.582;10.062;2023-02-11T06:02:39;102576.50;;;9.02;96.04
17785;BME280;9016;53.582;10.062;2023-02-11T06:05:07;102582.00;;;8.94;96.10
17785;BME280;9016;53.582;10.062;2023-02-11T06:07:37;102582.78;;;8.97;96.84
17785;BME280;9016;53.582;10.062;2023-02-11T06:10:06;102570.19;;;9.06;97.06
17785;BME280;9016;53.582;10.062;2023-02-11T06:12:35;102572.06;;;9.00;96.25
17785;BME280;9016;53.582;10.062;2023-02-11T06:15:04;102568.75;;;8.91;96.95
17785;BME280;9016;53.582;10.062;2023-02-11T06:17:33;102551.72;;;8.99;97.53
17785;BME280;9016;53.582;10.062;2023-02-11T06:20:04;102547.44;;;8.94;97.14
17785;BME280;9016;53.582;10.062;2023-02-11T06:22:33;102538.47;;;8.96;96.95
17785;BME280;9016;53.582;10.062;2023-02-11T06:25:02;102549.25;;;8.92;97.55
17785;BME280;9016;53.582;10.062;2023-02-11T06:27:30;102563.44;;;8.91;97.38
17785;BME280;9016;53.582;10.062;2023-02-11T06:29:58;102570.53;;;8.92;98.69
17785;BME280;9016;53.582;10.062;2023-02-11T06:32:27;102584.44;;;9.03;98.58
17785;BME280;9016;53.582;10.062;2023-02-11T06:35:12;102587.91;;;9.05;97.44
17785;BME280;9016;53.582;10.062;2023-02-11T06:37:41;102601.50;;;8.94;98.37
17785;BME280;9016;53.582;10.062;2023-02-11T06:40:11;102588.72;;;9.09;98.49
17785;BME280;9016;53.582;10.062;2023-02-11T06:42:39;102591.25;;;9.13;97.19
17785;BME280;9016;53.582;10.062;2023-02-11T06:45:08;102595.47;;;9.22;97.16
17785;BME280;9016;53.582;10.062;2023-02-11T06:47:36;102587.41;;;9.25;97.62
17785;BME280;9016;53.582;10.062;2023-02-11T06:50:06;102596.13;;;9.30;96.90
17785;BME280;9016;53.582;10.062;2023-02-11T06:52:34;102592.63;;;9.29;96.47
17785;BME280;9016;53.582;10.062;2023-02-11T06:55:03;102600.00;;;9.18;96.48
17785;BME280;9016;53.582;10.062;2023-02-11T06:57:32;102613.22;;;9.21;97.95
17785;BME280;9016;53.582;10.062;2023-02-11T07:00:00;102619.41;;;9.22;98.16
17785;BME280;9016;53.582;10.062;2023-02-11T07:02:28;102622.09;;;9.22;97.73
17785;BME280;9016;53.582;10.062;2023-02-11T07:04:56;102615.78;;;9.26;98.44
17785;BME280;9016;53.582;10.062;2023-02-11T07:07:24;102626.69;;;9.14;97.90
17785;BME280;9016;53.582;10.062;2023-02-11T07:09:52;102632.03;;;9.14;99.15
17785;BME280;9016;53.582;10.062;2023-02-11T07:12:20;102624.84;;;9.17;99.76
17785;BME280;9016;53.582;10.062;2023-02-11T07:14:49;102615.88;;;9.21;99.31
17785;BME280;9016;53.582;10.062;2023-02-11T07:17:18;102629.50;;;9.09;99.42
17785;BME280;9016;53.582;10.062;2023-02-11T07:19:46;102616.09;;;9.12;100.00
17785;BME280;9016;53.582;10.062;2023-02-11T07:22:14;102624.75;;;9.22;99.95
17785;BME280;9016;53.582;10.062;2023-02-11T07:24:42;102622.84;;;9.27;99.36
17785;BME280;9016;53.582;10.062;2023-02-11T07:27:10;102622.91;;;9.24;99.48
17785;BME280;9016;53.582;10.062;2023-02-11T07:29:40;102630.72;;;9.31;99.49
17785;BME280;9016;53.582;10.062;2023-02-11T07:32:09;102618.44;;;9.26;100.00
17785;BME280;9016;53.582;10.062;2023-02-11T07:34:37;102625.50;;;9.27;99.58
17785;BME280;9016;53.582;10.062;2023-02-11T07:37:05;102615.78;;;9.24;99.73
17785;BME280;9016;53.582;10.062;2023-02-11T07:39:33;102613.97;;;9.28;99.84
17785;BME280;9016;53.582;10.062;2023-02-11T07:42:02;102622.59;;;9.36;100.00
17785;BME280;9016;53.582;10.062;2023-02-11T07:44:30;102625.41;;;9.30;99.12
17785;BME280;9016;53.582;10.062;2023-02-11T07:46:58;102633.25;;;9.36;99.84
17785;BME280;9016;53.582;10.062;2023-02-11T07:49:28;102639.50;;;9.35;100.00
17785;BME280;9016;53.582;10.062;2023-02-11T07:51:56;102661.63;;;9.37;100.00
17785;BME280;9016;53.582;10.062;2023-02-11T07:54:24;102672.25;;;9.37;99.32
17785;BME280;9016;53.582;10.062;2023-02-11T07:56:52;102668.44;;;9.47;99.37
17785;BME280;9016;53.582;10.062;2023-02-11T07:59:20;102671.19;;;9.44;98.89
17785;BME280;9016;53.582;10.062;2023-02-11T08:01:50;102672.91;;;9.45;99.61
17785;BME280;9016;53.582;10.062;2023-02-11T08:04:18;102671.22;;;9.42;98.77
17785;BME280;9016;53.582;10.062;2023-02-11T08:06:47;102672.22;;;9.38;99.35
17785;BME280;9016;53.582;10.062;2023-02-11T08:09:18;102669.38;;;9.46;98.79
17785;BME280;9016;53.582;10.062;2023-02-11T08:11:46;102659.75;;;9.40;99.54
17785;BME280;9016;53.582;10.062;2023-02-11T08:14:14;102662.22;;;9.46;100.00
17785;BME280;9016;53.582;10.062;2023-02-11T08:16:42;102678.16;;;9.49;99.81
17785;BME280;9016;53.582;10.062;2023-02-11T08:19:13;102672.78;;;9.51;99.96
17785;BME280;9016;53.582;10.062;2023-02-11T08:21:42;102679.72;;;9.56;99.51
17785;BME280;9016;53.582;10.062;2023-02-11T08:24:11;102681.50;;;9.56;98.72
17785;BME280;9016;53.582;10.062;2023-02-11T08:26:39;102685.25;;;9.49;99.82
17785;BME280;9016;53.582;10.062;2023-02-11T08:29:10;102695.00;;;9.48;99.80
17785;BME280;9016;53.582;10.062;2023-02-11T08:31:40;102693.38;;;9.43;100.00
17785;BME280;9016;53.582;10.062;2023-02-11T08:34:09;102702.75;;;9.57;100.00
17785;BME280;9016;53.582;10.062;2023-02-11T08:36:41;102700.78;;;9.65;99.58
17785;BME280;9016;53.582;10.062;2023-02-11T08:39:15;102711.34;;;9.70;98.44
17785;BME280;9016;53.582;10.062;2023-02-11T08:41:46;102725.63;;;9.66;98.25
17785;BME280;9016;53.582;10.062;2023-02-11T08:44:17;102718.53;;;9.65;99.02
17785;BME280;9016;53.582;10.062;2023-02-11T08:46:46;102719.31;;;9.70;98.99
17785;BME280;9016;53.582;10.062;2023-02-11T08:49:15;102730.22;;;9.61;98.81
17785;BME280;9016;53.582;10.062;2023-02-11T08:51:48;102728.28;;;9.66;99.26
17785;BME280;9016;53.582;10.062;2023-02-11T08:54:20;102718.31;;;9.75;99.52
17785;BME280;9016;53.582;10.062;2023-02-11T08:56:50;102727.03;;;9.80;98.50
17785;BME280;9016;53.582;10.062;2023-02-11T08:59:19;102730.41;;;9.87;98.27
17785;BME280;9016;53.582;10.062;2023-02-11T09:01:47;102725.16;;;9.84;97.53
17785;BME280;9016;53.582;10.062;2023-02-11T09:04:17;102727.06;;;9.79;97.95
17785;BME280;9016;53.582;10.062;2023-02-11T09:06:46;102724.41;;;9.79;98.33
17785;BME280;9016;53.582;10.062;2023-02-11T09:09:16;102720.88;;;9.78;98.13
17785;BME280;9016;53.582;10.062;2023-02-11T09:11:45;102736.25;;;9.67;98.47
17785;BME280;9016;53.582;10.062;2023-02-11T09:14:16;102713.91;;;9.73;98.80
17785;BME280;9016;53.582;10.062;2023-02-11T09:16:45;102716.38;;;9.80;99.18
17785;BME280;9016;53.582;10.062;2023-02-11T09:19:14;102710.06;;;9.84;98.99
17785;BME280;9016;53.582;10.062;2023-02-11T09:21:42;102719.72;;;9.88;97.75
17785;BME280;9016;53.582;10.062;2023-02-11T09:24:12;102724.19;;;9.88;98.41
17785;BME280;9016;53.582;10.062;2023-02-11T09:26:41;102726.91;;;9.85;98.48
17785;BME280;9016;53.582;10.062;2023-02-11T09:29:13;102729.59;;;9.83;98.33
17785;BME280;9016;53.582;10.062;2023-02-11T09:31:42;102753.19;;;9.98;98.66
17785;BME280;9016;53.582;10.062;2023-02-11T09:34:12;102756.13;;;9.88;98.02
17785;BME280;9016;53.582;10.062;2023-02-11T09:36:41;102756.53;;;10.07;98.38
17785;BME280;9016;53.582;10.062;2023-02-11T09:39:12;102746.13;;;9.97;97.46
17785;BME280;9016;53.582;10.062;2023-02-11T09:42:02;102745.09;;;10.01;97.45
17785;BME280;9016;53.582;10.062;2023-02-11T09:44:36;102740.78;;;9.97;98.15
17785;BME280;9016;53.582;10.062;2023-02-11T09:51:11;102732.81;;;9.96;97.64
17785;BME280;9016;53.582;10.062;2023-02-11T09:54:42;102739.59;;;10.11;97.51
17785;BME280;9016;53.582;10.062;2023-02-11T09:57:57;102738.72;;;10.09;96.99
17785;BME280;9016;53.582;10.062;2023-02-11T10:01:25;102744.94;;;10.09;97.29
17785;BME280;9016;53.582;10.062;2023-02-11T10:04:52;102747.63;;;10.08;97.11
17785;BME280;9016;53.582;10.062;2023-02-11T10:08:04;102761.75;;;10.11;96.86
17785;BME280;9016;53.582;10.062;2023-02-11T10:22:00;102768.03;;;10.07;97.81
17785;BME280;9016;53.582;10.062;2023-02-11T10:32:56;102780.06;;;10.25;97.68
17785;BME280;9016;53.582;10.062;2023-02-11T10:35:55;102791.13;;;10.08;98.50
17785;BME280;9016;53.582;10.062;2023-02-11T10:39:19;102788.22;;;10.19;99.52
17785;BME280;9016;53.582;10.062;2023-02-11T10:42:35;102780.94;;;10.25;100.00
17785;BME280;9016;53.582;10.062;2023-02-11T10:49:16;102759.75;;;10.21;99.69
17785;BME280;9016;53.582;10.062;2023-02-11T10:52:32;102762.28;;;10.25;98.65
17785;BME280;9016;53.582;10.062;2023-02-11T10:59:28;102771.13;;;10.26;100.00
17785;BME280;9016;53.582;10.062;2023-02-11T11:03:15;102748.34;;;10.16;99.92
17785;BME280;9016;53.582;10.062;2023-02-11T11:07:08;102756.19;;;10.20;100.00
17785;BME280;9016;53.582;10.062;2023-02-11T11:10:25;102755.09;;;10.29;100.00
17785;BME280;9016;53.582;10.062;2023-02-11T11:12:53;102745.25;;;10.31;100.00
17785;BME280;9016;53.582;10.062;2023-02-11T11:15:25;102760.47;;;10.26;99.68
17785;BME280;9016;53.582;10.062;2023-02-11T11:18:09;102764.03;;;10.26;100.00
17785;BME280;9016;53.582;10.062;2023-02-11T11:20:55;102772.75;;;10.33;100.00
17785;BME280;9016;53.582;10.062;2023-02-11T11:23:24;102780.84;;;10.28;100.00
17785;BME280;9016;53.582;10.062;2023-02-11T11:26:02;102785.28;;;10.28;100.00
17785;BME280;9016;53.582;10.062;2023-02-11T11:28:35;102783.16;;;10.42;100.00
17785;BME280;9016;53.582;10.062;2023-02-11T11:33:42;102766.88;;;10.52;99.75
17785;BME280;9016;53.582;10.062;2023-02-11T11:36:13;102772.97;;;10.56;98.88
17785;BME280;9016;53.582;10.062;2023-02-11T11:38:43;102767.84;;;10.48;98.01
17785;BME280;9016;53.582;10.062;2023-02-11T11:41:19;102777.22;;;10.63;98.59
17785;BME280;9016;53.582;10.062;2023-02-11T11:43:59;102789.13;;;10.51;98.13
17785;BME280;9016;53.582;10.062;2023-02-11T11:46:32;102788.09;;;10.55;98.54
17785;BME280;9016;53.582;10.062;2023-02-11T11:49:11;102783.44;;;10.63;98.29
17785;BME280;9016;53.582;10.062;2023-02-11T11:51:41;102796.66;;;10.66;98.46
17785;BME280;9016;53.582;10.062;2023-02-11T11:54:14;102799.91;;;10.77;97.66
17785;BME280;9016;53.582;10.062;2023-02-11T11:56:50;102802.50;;;10.80;97.16
17785;BME280;9016;53.582;10.062;2023-02-11T11:59:20;102809.78;;;10.74;96.57
17785;BME280;9016;53.582;10.062;2023-02-11T12:02:05;102800.38;;;10.62;96.87
17785;BME280;9016;53.582;10.062;2023-02-11T12:04:58;102801.16;;;10.64;97.61
17785;BME280;9016;53.582;10.062;2023-02-11T12:07:40;102810.19;;;10.60;98.24
17785;BME280;9016;53.582;10.062;2023-02-11T12:10:24;102804.66;;;10.66;98.07
17785;BME280;9016;53.582;10.062;2023-02-11T12:12:59;102809.97;;;10.68;98.25
17785;BME280;9016;53.582;10.062;2023-02-11T12:15:35;102817.25;;;10.61;98.86
17785;BME280;9016;53.582;10.062;2023-02-11T12:18:16;102821.72;;;10.61;99.40
17785;BME280;9016;53.582;10.062;2023-02-11T12:21:09;102824.50;;;10.56;98.65
17785;BME280;9016;53.582;10.062;2023-02-11T12:23:50;102812.34;;;10.46;98.87
17785;BME280;9016;53.582;10.062;2023-02-11T12:26:22;102816.47;;;10.58;100.00
17785;BME280;9016;53.582;10.062;2023-02-11T12:29:01;102817.22;;;10.63;99.60
17785;BME280;9016;53.582;10.062;2023-02-11T12:31:43;102817.56;;;10.51;99.84
17785;BME280;9016;53.582;10.062;2023-02-11T12:34:34;102819.97;;;10.60;100.00
17785;BME280;9016;53.582;10.062;2023-02-11T12:37:17;102821.81;;;10.58;100.00
17785;BME280;9016;53.582;10.062;2023-02-11T12:39:50;102821.81;;;10.58;100.00
17785;BME280;9016;53.582;10.062;2023-02-11T12:42:37;102824.34;;;10.62;100.00
17785;BME280;9016;53.582;10.062;2023-02-11T12:45:45;102820.91;;;10.57;100.00
17785;BME280;9016;53.582;10.062;2023-02-11T12:48:24;102819.81;;;10.66;100.00
17785;BME280;9016;53.582;10.062;2023-02-11T12:51:00;102819.81;;;10.64;100.00
17785;BME280;9016;53.582;10.062;2023-02-11T12:53:49;102809.69;;;10.78;100.00
17785;BME280;9016;53.582;10.062;2023-02-11T12:56:27;102811.09;;;10.91;99.73
17785;BME280;9016;53.582;10.062;2023-02-11T12:58:59;102809.16;;;10.96;99.19
17785;BME280;9016;53.582;10.062;2023-02-11T13:01:33;102798.94;;;11.11;98.90
17785;BME280;9016;53.582;10.062;2023-02-11T13:04:06;102801.69;;;11.08;97.36
17785;BME280;9016;53.582;10.062;2023-02-11T13:06:39;102794.06;;;10.95;97.32
17785;BME280;9016;53.582;10.062;2023-02-11T13:09:13;102804.91;;;10.89;97.13
17785;BME280;9016;53.582;10.062;2023-02-11T13:11:46;102804.19;;;10.83;97.67
17785;BME280;9016;53.582;10.062;2023-02-11T13:14:27;102795.91;;;10.93;98.04
17785;BME280;9016;53.582;10.062;2023-02-11T13:16:58;102817.25;;;10.92;97.63
17785;BME280;9016;53.582;10.062;2023-02-11T13:19:33;102809.47;;;10.86;98.47
17785;BME280;9016;53.582;10.062;2023-02-11T13:22:19;102796.41;;;10.75;98.70
17785;BME280;9016;53.582;10.062;2023-02-11T13:24:57;102804.66;;;10.66;98.47
17785;BME280;9016;53.582;10.062;2023-02-11T13:27:35;102807.28;;;10.69;99.33
17785;BME280;9016;53.582;10.062;2023-02-11T13:30:23;102794.78;;;10.71;99.98
17785;BME280;9016;53.582;10.062;2023-02-11T13:33:05;102806.63;;;10.60;99.42
17785;BME280;9016;53.582;10.062;2023-02-11T13:35:48;102807.34;;;10.66;99.96
17785;BME280;9016;53.582;10.062;2023-02-11T13:38:37;102821.59;;;10.65;99.76
17785;BME280;9016;53.582;10.062;2023-02-11T13:41:14;102828.91;;;10.57;100.00
17785;BME280;9016;53.582;10.062;2023-02-11T13:43:43;102816.53;;;10.56;100.00
17785;BME280;9016;53.582;10.062;2023-02-11T13:46:12;102821.56;;;10.67;100.00
17785;BME280;9016;53.582;10.062;2023-02-11T13:48:46;102812.41;;;10.75;100.00
17785;BME280;9016;53.582;10.062;2023-02-11T13:51:17;102807.97;;;10.76;99.61
17785;BME280;9016;53.582;10.062;2023-02-11T13:53:49;102808.84;;;10.76;100.00
17785;BME280;9016;53.582;10.062;2023-02-11T13:56:28;102826.69;;;10.74;99.33
17785;BME280;9016;53.582;10.062;2023-02-11T13:58:58;102824.16;;;10.68;100.00
17785;BME280;9016;53.582;10.062;2023-02-11T14:05:01;102825.09;;;10.67;100.00
17785;BME280;9016;53.582;10.062;2023-02-11T14:08:13;102825.84;;;10.72;100.00
17785;BME280;9016;53.582;10.062;2023-02-11T14:11:04;102835.13;;;10.58;100.00
17785;BME280;9016;53.582;10.062;2023-02-11T14:17:29;102850.25;;;10.57;100.00
17785;BME280;9016;53.582;10.062;2023-02-11T14:19:58;102851.03;;;10.62;100.00